Time;durP1;ratioP1;P1;durP2;ratioP2;P2;SDS_P1;SDS_P2;PMS_P1;PMS_P2;Temp;Humidity;BMP_temperature;BMP_pressure;BME280_temperature;BME280_humidity;BME280_pressure;Samples;Min_cycle;Max_cycle;Signal;HPM_P1;HPM_P2
2023/05/24 00:00:30;;;;;;;42.58;22.83;;;11.50;1.00;;;;;;5029181;28;20041;-59
2023/05/24 00:02:56;;;;;;;39.72;22.63;;;11.60;1.00;;;;;;5029388;28;20057;-60
2023/05/24 00:05:22;;;;;;;34.10;20.67;;;12.20;1.00;;;;;;5029152;28;20116;-59
2023/05/24 00:07:48;;;;;;;34.75;21.67;;;11.50;99.90;;;;;;5027064;28;20049;-59
2023/05/24 00:10:13;;;;;;;33.47;20.70;;;11.60;99.90;;;;;;5029007;28;20376;-59
2023/05/24 00:12:39;;;;;;;46.85;23.08;;;11.40;99.90;;;;;;5029166;28;20163;-59
2023/05/24 00:15:05;;;;;;;39.97;22.83;;;11.40;99.90;;;;;;5029251;28;20622;-59
2023/05/24 00:17:33;;;;;;;38.83;22.08;;;11.50;99.90;;;;;;5028660;28;20163;-59
2023/05/24 00:19:59;;;;;;;40.05;21.42;;;11.40;99.90;;;;;;5028931;28;20120;-59
2023/05/24 00:22:25;;;;;;;38.15;22.67;;;11.40;99.90;;;;;;5028048;28;20133;-59
2023/05/24 00:24:50;;;;;;;33.33;21.92;;;11.40;99.90;;;;;;5028812;28;20037;-59
2023/05/24 00:27:16;;;;;;;31.90;21.90;;;11.40;99.90;;;;;;5027709;28;20507;-59
2023/05/24 00:29:42;;;;;;;37.72;22.98;;;11.40;99.90;;;;;;5028661;28;20491;-59
2023/05/24 00:32:07;;;;;;;34.47;22.58;;;11.40;99.90;;;;;;5028799;28;20073;-59
2023/05/24 00:34:33;;;;;;;40.15;23.65;;;11.40;99.90;;;;;;5028750;28;20044;-59
2023/05/24 00:36:59;;;;;;;35.75;22.27;;;11.40;99.90;;;;;;5013895;28;20120;-60
2023/05/24 00:39:25;;;;;;;36.70;22.60;;;11.50;1.00;;;;;;5024216;28;20431;-60
2023/05/24 00:41:51;;;;;;;38.88;22.95;;;11.40;1.00;;;;;;5017456;28;20037;-60
2023/05/24 00:44:17;;;;;;;35.20;20.98;;;11.50;1.00;;;;;;5044203;28;20442;-60
2023/05/24 00:46:43;;;;;;;35.88;21.60;;;11.50;1.00;;;;;;5028339;28;20053;-60
2023/05/24 00:49:09;;;;;;;36.88;20.80;;;11.50;1.00;;;;;;5028538;28;20053;-59
2023/05/24 00:51:35;;;;;;;36.40;20.70;;;11.50;99.90;;;;;;5031215;28;20419;-60
2023/05/24 00:54:01;;;;;;;39.17;20.83;;;11.50;99.90;;;;;;5032296;28;20041;-60
2023/05/24 00:56:27;;;;;;;30.30;22.08;;;11.60;99.90;;;;;;5030158;28;20115;-60
2023/05/24 00:58:54;;;;;;;33.35;20.08;;;11.60;35.00;;;;;;5032160;28;20085;-60
2023/05/24 01:01:24;;;;;;;31.90;20.77;;;12.30;1.00;;;;;;5032161;28;20045;-60
2023/05/24 01:03:51;;;;;;;34.88;21.13;;;11.50;1.00;;;;;;5029672;28;20080;-60
2023/05/24 01:06:17;;;;;;;35.72;20.80;;;11.50;99.90;;;;;;5031855;28;20069;-60
2023/05/24 01:09:15;;;;;;;35.55;20.77;;;11.60;99.90;;;;;;5031714;28;20116;-61
2023/05/24 01:12:30;;;;;;;31.20;20.50;;;11.60;99.90;;;;;;5030360;28;20427;-60
2023/05/24 01:15:15;;;;;;;30.02;21.45;;;11.60;72.90;;;;;;5022525;28;20091;-60
2023/05/24 01:17:55;;;;;;;28.13;18.13;;;11.50;21.20;;;;;;5031396;28;20117;-59
2023/05/24 01:20:23;;;;;;;41.28;20.92;;;11.60;1.00;;;;;;5030979;28;20029;-59
2023/05/24 01:22:58;;;;;;;33.55;20.35;;;11.60;1.00;;;;;;5031161;28;20045;-59
2023/05/24 01:25:26;;;;;;;33.30;17.50;;;11.60;99.90;;;;;;5031431;28;20041;-59
2023/05/24 01:27:52;;;;;;;31.60;17.98;;;11.60;99.90;;;;;;5031123;28;20509;-59
2023/05/24 01:30:19;;;;;;;34.30;19.70;;;11.70;99.90;;;;;;5031600;28;20096;-59
2023/05/24 01:32:45;;;;;;;33.60;21.02;;;11.70;89.70;;;;;;5029465;28;20133;-59
2023/05/24 01:35:11;;;;;;;33.03;19.58;;;11.70;22.40;;;;;;5027765;28;20108;-59
2023/05/24 01:37:37;;;;;;;41.00;21.50;;;11.70;1.00;;;;;;5030778;28;20037;-59
2023/05/24 01:40:03;;;;;;;37.50;21.02;;;11.70;1.00;;;;;;5031367;28;20475;-59
2023/05/24 01:42:40;;;;;;;34.70;20.75;;;11.70;1.00;;;;;;5031144;28;20037;-59
2023/05/24 01:45:19;;;;;;;33.22;20.23;;;11.70;1.00;;;;;;5014075;28;20113;-59
2023/05/24 01:47:57;;;;;;;35.85;20.73;;;11.80;1.00;;;;;;5030001;28;20059;-60
2023/05/24 01:50:31;;;;;;;35.92;22.67;;;11.70;1.00;;;;;;5029927;28;20056;-59
2023/05/24 01:53:03;;;;;;;33.67;19.90;;;11.70;1.00;;;;;;5031142;28;20495;-59
2023/05/24 01:55:31;;;;;;;31.02;20.40;;;11.70;1.00;;;;;;5031725;28;20041;-59
2023/05/24 01:58:01;;;;;;;35.70;19.42;;;11.70;1.00;;;;;;5029651;28;20091;-59
2023/05/24 02:00:27;;;;;;;36.88;21.00;;;11.60;1.00;;;;;;5030449;28;20059;-59
2023/05/24 02:02:55;;;;;;;35.47;19.35;;;11.60;1.00;;;;;;5030425;28;20053;-59
2023/05/24 02:05:20;;;;;;;34.58;18.15;;;11.60;99.90;;;;;;5030994;28;20069;-59
2023/05/24 02:07:46;;;;;;;30.80;20.60;;;11.60;99.90;;;;;;5030865;28;20076;-59
2023/05/24 02:10:12;;;;;;;33.88;19.85;;;11.60;99.90;;;;;;5030353;28;20049;-59
2023/05/24 02:12:37;;;;;;;27.20;19.00;;;11.60;99.90;;;;;;5031463;28;20037;-59
2023/05/24 02:15:03;;;;;;;36.80;22.50;;;11.50;99.90;;;;;;5031118;28;20045;-59
2023/05/24 02:17:31;;;;;;;31.33;21.70;;;11.60;99.90;;;;;;5028946;28;21993;-59
2023/05/24 02:19:58;;;;;;;35.60;22.17;;;11.60;99.90;;;;;;5027478;28;20138;-59
2023/05/24 02:22:24;;;;;;;32.55;22.05;;;11.60;99.90;;;;;;5029480;28;20051;-59
2023/05/24 02:24:50;;;;;;;34.25;21.92;;;11.60;1.00;;;;;;5030633;28;20488;-59
2023/05/24 02:27:15;;;;;;;33.75;21.45;;;11.50;1.00;;;;;;5030585;28;20078;-59
2023/05/24 02:29:41;;;;;;;31.30;20.17;;;11.50;1.00;;;;;;5028667;28;20033;-59
2023/05/24 02:32:07;;;;;;;34.13;20.63;;;11.60;1.00;;;;;;5029952;28;20077;-59
2023/05/24 02:34:32;;;;;;;32.15;19.10;;;11.60;1.00;;;;;;5029503;28;20410;-59
2023/05/24 02:36:58;;;;;;;30.55;20.33;;;11.60;1.00;;;;;;5030087;28;20048;-59
2023/05/24 02:39:23;;;;;;;32.85;19.98;;;11.60;1.00;;;;;;5028689;28;20518;-59
2023/05/24 02:41:49;;;;;;;33.45;21.52;;;11.60;1.00;;;;;;5029404;28;20373;-59
2023/05/24 02:44:15;;;;;;;36.22;21.20;;;11.70;1.00;;;;;;5030341;28;20044;-59
2023/05/24 02:46:40;;;;;;;32.88;21.98;;;11.60;1.00;;;;;;5029408;28;20050;-59
2023/05/24 02:49:06;;;;;;;31.65;20.63;;;11.60;1.00;;;;;;5026914;28;20056;-59
2023/05/24 02:51:32;;;;;;;35.33;21.30;;;11.70;1.00;;;;;;5028438;28;20041;-59
2023/05/24 02:53:57;;;;;;;32.20;19.50;;;11.60;1.00;;;;;;5030108;28;20045;-59
2023/05/24 02:56:25;;;;;;;27.05;18.35;;;11.70;1.00;;;;;;5029916;28;20038;-59
2023/05/24 02:58:52;;;;;;;32.88;20.05;;;11.70;1.00;;;;;;5028130;28;20060;-59
2023/05/24 03:01:19;;;;;;;36.58;21.13;;;11.70;1.00;;;;;;5028093;28;20068;-59
2023/05/24 03:03:45;;;;;;;32.35;20.48;;;11.70;1.00;;;;;;5029142;28;20112;-59
2023/05/24 03:06:12;;;;;;;32.33;19.83;;;12.20;1.00;;;;;;5028871;28;20037;-59
2023/05/24 03:08:38;;;;;;;31.70;20.67;;;11.70;1.00;;;;;;5030524;28;20046;-62
2023/05/24 03:11:04;;;;;;;39.33;20.88;;;11.60;13.60;;;;;;5028873;28;20099;-62
2023/05/24 03:13:30;;;;;;;38.90;20.35;;;11.70;76.50;;;;;;5027080;28;20165;-63
2023/05/24 03:15:55;;;;;;;31.50;19.35;;;11.70;99.90;;;;;;5029692;28;20053;-63
2023/05/24 03:18:21;;;;;;;35.17;21.20;;;11.70;99.90;;;;;;5029736;28;20049;-63
2023/05/24 03:20:46;;;;;;;34.97;22.27;;;11.70;99.90;;;;;;5028031;28;20045;-63
2023/05/24 03:23:13;;;;;;;32.38;21.25;;;11.70;99.90;;;;;;5027405;28;20049;-63
2023/05/24 03:25:39;;;;;;;31.13;20.92;;;12.20;99.90;;;;;;5028806;28;20092;-63
2023/05/24 03:28:05;;;;;;;36.70;22.48;;;12.40;99.90;;;;;;5029096;28;20084;-63
2023/05/24 03:30:31;;;;;;;32.42;21.73;;;11.60;99.90;;;;;;5028103;28;20407;-63
2023/05/24 03:32:57;;;;;;;31.13;19.42;;;11.60;99.90;;;;;;5028290;28;20494;-63
2023/05/24 03:35:23;;;;;;;31.75;20.88;;;11.70;99.90;;;;;;5029594;28;20041;-63
2023/05/24 03:37:48;;;;;;;33.92;21.88;;;11.70;99.90;;;;;;5028484;28;20047;-63
2023/05/24 03:40:14;;;;;;;36.13;22.60;;;12.00;99.90;;;;;;5027402;28;20503;-63
2023/05/24 03:42:40;;;;;;;39.83;22.65;;;11.70;99.90;;;;;;5027142;28;20076;-63
2023/05/24 03:45:06;;;;;;;34.97;23.17;;;11.60;99.90;;;;;;5028443;28;20057;-63
2023/05/24 03:47:32;;;;;;;34.22;25.80;;;11.70;99.90;;;;;;5027648;28;20053;-63
2023/05/24 03:49:57;;;;;;;38.03;23.85;;;11.70;99.90;;;;;;5028975;28;20078;-63
2023/05/24 03:52:24;;;;;;;38.80;24.42;;;11.70;99.90;;;;;;5028277;28;20051;-63
2023/05/24 03:54:49;;;;;;;40.05;25.42;;;11.70;99.90;;;;;;5029112;28;20557;-63
2023/05/24 03:57:15;;;;;;;41.97;25.52;;;11.70;99.90;;;;;;5029248;28;20053;-63
2023/05/24 03:59:41;;;;;;;30.35;23.90;;;11.70;1.00;;;;;;5029026;28;20571;-63
2023/05/24 04:02:06;;;;;;;36.55;24.50;;;11.80;1.00;;;;;;5027452;28;20077;-63
2023/05/24 04:04:32;;;;;;;34.75;23.42;;;12.10;1.00;;;;;;5028839;28;20112;-63
2023/05/24 04:06:58;;;;;;;39.05;23.98;;;11.80;1.00;;;;;;5028729;28;20096;-64
2023/05/24 04:09:24;;;;;;;37.60;24.98;;;11.80;1.00;;;;;;5027791;28;20048;-63
2023/05/24 04:11:49;;;;;;;38.42;23.58;;;11.90;10.20;;;;;;5028828;28;20051;-63
2023/05/24 04:14:15;;;;;;;38.92;23.10;;;11.90;39.50;;;;;;5028683;28;20490;-63
2023/05/24 04:16:43;;;;;;;34.58;23.50;;;12.10;34.30;;;;;;5027161;28;20124;-63
2023/05/24 04:19:09;;;;;;;33.75;24.30;;;11.90;47.20;;;;;;5012159;28;20223;-63
2023/05/24 04:21:36;;;;;;;37.63;24.58;;;11.90;91.00;;;;;;5028770;28;20049;-63
2023/05/24 04:24:03;;;;;;;38.85;24.10;;;11.90;99.90;;;;;;5028332;28;20041;-63
2023/05/24 04:26:29;;;;;;;38.90;23.70;;;11.90;99.90;;;;;;5031855;28;20513;-63
2023/05/24 04:28:55;;;;;;;39.95;24.95;;;11.90;99.90;;;;;;5031934;28;20045;-63
2023/05/24 04:31:20;;;;;;;34.00;24.98;;;12.00;99.90;;;;;;5032452;28;20049;-63
2023/05/24 04:33:46;;;;;;;37.17;25.88;;;12.00;99.90;;;;;;5032171;28;20064;-63
2023/05/24 04:36:12;;;;;;;34.92;24.77;;;12.00;99.90;;;;;;5030655;28;20125;-63
2023/05/24 04:38:38;;;;;;;36.17;23.83;;;12.00;99.90;;;;;;5022116;28;20041;-63
2023/05/24 04:41:04;;;;;;;32.97;22.42;;;12.00;99.90;;;;;;5032614;28;20083;-63
2023/05/24 04:43:35;;;;;;;34.30;22.42;;;12.10;99.90;;;;;;5032088;28;20132;-62
2023/05/24 04:46:00;;;;;;;33.50;22.77;;;12.10;99.90;;;;;;5032268;28;20038;-63
2023/05/24 04:48:26;;;;;;;38.38;22.80;;;12.20;99.90;;;;;;5030456;28;20048;-63
2023/05/24 04:50:53;;;;;;;41.17;23.60;;;12.40;99.90;;;;;;5032427;28;20045;-63
2023/05/24 04:53:19;;;;;;;36.92;23.85;;;12.30;99.90;;;;;;5032327;28;20773;-63
2023/05/24 04:55:45;;;;;;;38.90;24.20;;;12.40;99.90;;;;;;5032409;28;20068;-63
2023/05/24 04:58:10;;;;;;;37.55;23.42;;;12.40;99.90;;;;;;5030147;28;20148;-63
2023/05/24 05:00:36;;;;;;;39.47;22.65;;;12.40;99.90;;;;;;5032334;28;20777;-63
2023/05/24 05:03:02;;;;;;;42.10;23.02;;;12.50;99.90;;;;;;5031842;28;20384;-63
2023/05/24 05:05:28;;;;;;;32.67;22.80;;;12.50;64.40;;;;;;5029688;28;20030;-63
2023/05/24 05:07:53;;;;;;;36.25;23.90;;;12.40;10.60;;;;;;5031562;28;20396;-63
2023/05/24 05:10:19;;;;;;;30.40;22.23;;;12.50;1.00;;;;;;5030110;28;20038;-63
2023/05/24 05:12:44;;;;;;;34.92;22.50;;;12.50;1.00;;;;;;5029339;28;20046;-63
2023/05/24 05:15:11;;;;;;;42.72;22.38;;;12.50;99.90;;;;;;5031807;28;20123;-63
2023/05/24 05:17:37;;;;;;;33.53;22.90;;;12.50;99.90;;;;;;5022106;28;20068;-63
2023/05/24 05:20:03;;;;;;;38.53;23.58;;;12.60;99.90;;;;;;5011959;28;20046;-63
2023/05/24 05:22:28;;;;;;;35.50;22.63;;;12.60;99.90;;;;;;5043709;28;20033;-63
2023/05/24 05:24:54;;;;;;;35.70;23.90;;;12.60;99.90;;;;;;5030977;28;20045;-63
2023/05/24 05:27:20;;;;;;;32.08;22.45;;;12.80;88.70;;;;;;5031417;28;20044;-63
2023/05/24 05:29:45;;;;;;;35.20;21.15;;;12.80;99.90;;;;;;5031711;28;20045;-63
2023/05/24 05:32:11;;;;;;;33.22;20.98;;;12.80;78.80;;;;;;5030294;28;20045;-63
2023/05/24 05:34:37;;;;;;;29.25;21.05;;;12.80;1.00;;;;;;5030573;28;20113;-63
2023/05/24 05:37:02;;;;;;;32.78;20.63;;;13.20;1.00;;;;;;5030728;28;20041;-63
2023/05/24 05:39:30;;;;;;;37.97;22.35;;;12.90;99.90;;;;;;5028121;28;20053;-63
2023/05/24 05:41:56;;;;;;;33.00;20.65;;;13.10;99.90;;;;;;5019444;28;20063;-63
2023/05/24 05:44:21;;;;;;;30.73;21.05;;;13.10;99.90;;;;;;5030526;28;20121;-63
2023/05/24 05:46:47;;;;;;;34.13;22.40;;;13.10;1.00;;;;;;5030855;28;20057;-63
2023/05/24 05:49:14;;;;;;;33.58;21.48;;;13.10;1.00;;;;;;5025014;28;20038;-63
2023/05/24 05:51:40;;;;;;;32.58;22.25;;;13.10;1.00;;;;;;5028053;28;20037;-63
2023/05/24 05:54:13;;;;;;;33.00;20.98;;;13.20;1.00;;;;;;5028723;28;20048;-63
2023/05/24 05:56:44;;;;;;;31.17;21.17;;;13.20;1.00;;;;;;5027807;28;20112;-63
2023/05/24 05:59:14;;;;;;;32.42;21.80;;;13.20;99.90;;;;;;5028264;28;20071;-63
2023/05/24 06:01:40;;;;;;;33.42;22.33;;;13.30;99.90;;;;;;5027965;28;20086;-63
2023/05/24 06:04:06;;;;;;;35.90;21.65;;;13.20;99.90;;;;;;5024804;28;20416;-64
2023/05/24 06:06:32;;;;;;;28.92;21.35;;;13.30;99.90;;;;;;5029339;28;20038;-66
2023/05/24 06:08:59;;;;;;;27.42;18.58;;;13.40;99.90;;;;;;5024625;28;20400;-66
2023/05/24 06:11:25;;;;;;;31.95;19.30;;;13.50;99.90;;;;;;5026756;28;20033;-64
2023/05/24 06:13:51;;;;;;;31.80;18.15;;;13.40;84.30;;;;;;5026680;28;20064;-62
2023/05/24 06:16:17;;;;;;;28.67;16.23;;;13.60;1.00;;;;;;5029232;28;20064;-63
2023/05/24 06:18:43;;;;;;;33.53;17.10;;;13.60;1.00;;;;;;5019844;28;20036;-63
2023/05/24 06:21:09;;;;;;;28.48;17.20;;;13.60;99.90;;;;;;5028871;28;20064;-63
2023/05/24 06:23:37;;;;;;;25.85;16.33;;;13.70;99.90;;;;;;5027463;28;20083;-64
2023/05/24 06:26:04;;;;;;;28.88;17.70;;;13.70;99.90;;;;;;5029554;28;20040;-64
2023/05/24 06:28:30;;;;;;;33.95;15.98;;;13.80;99.90;;;;;;5028587;28;20048;-63
2023/05/24 06:30:55;;;;;;;29.98;16.13;;;13.80;99.90;;;;;;5030896;28;20042;-63
2023/05/24 06:33:21;;;;;;;24.75;14.98;;;13.90;54.40;;;;;;5028318;28;20037;-63
2023/05/24 06:35:47;;;;;;;29.50;16.42;;;13.80;1.00;;;;;;5019749;28;20046;-63
2023/05/24 06:38:13;;;;;;;27.27;16.52;;;13.90;1.00;;;;;;5024671;28;21852;-64
2023/05/24 06:40:40;;;;;;;27.73;18.70;;;14.20;1.00;;;;;;5022233;28;20038;-64
2023/05/24 06:43:05;;;;;;;23.80;16.35;;;13.90;1.00;;;;;;5028419;28;20042;-64
2023/05/24 06:45:31;;;;;;;24.70;17.42;;;14.10;1.00;;;;;;5044909;28;20052;-64
2023/05/24 06:47:57;;;;;;;25.60;16.70;;;13.90;99.90;;;;;;5028708;28;20068;-64
2023/05/24 06:50:22;;;;;;;22.90;12.85;;;14.10;99.90;;;;;;5029623;28;20068;-64
2023/05/24 06:52:48;;;;;;;29.02;14.60;;;14.20;99.90;;;;;;5030060;28;20098;-65
2023/05/24 06:55:14;;;;;;;30.45;12.98;;;14.30;99.90;;;;;;5028087;28;20045;-64
2023/05/24 06:57:40;;;;;;;30.05;13.60;;;14.30;99.90;;;;;;5029701;28;20163;-64
2023/05/24 07:00:10;;;;;;;24.80;13.45;;;14.50;99.90;;;;;;5028954;28;20041;-65
2023/05/24 07:02:40;;;;;;;23.17;13.05;;;14.70;99.90;;;;;;5044450;28;20391;-65
2023/05/24 07:05:11;;;;;;;21.80;13.98;;;14.70;99.90;;;;;;5029618;28;20499;-65
2023/05/24 07:07:38;;;;;;;24.90;11.63;;;14.80;48.70;;;;;;5029883;28;20048;-65
2023/05/24 07:10:06;;;;;;;24.45;11.95;;;14.90;24.30;;;;;;5028608;28;20056;-65
2023/05/24 07:12:31;;;;;;;20.05;11.65;;;15.00;1.00;;;;;;5029480;28;20068;-65
2023/05/24 07:14:57;;;;;;;21.92;11.80;;;15.10;1.00;;;;;;5029073;28;20038;-65
2023/05/24 07:17:22;;;;;;;21.38;10.02;;;15.20;1.00;;;;;;5029343;28;20048;-65
2023/05/24 07:19:48;;;;;;;23.48;9.63;;;15.20;1.00;;;;;;5029144;28;20076;-65
2023/05/24 07:22:14;;;;;;;19.45;10.27;;;15.20;1.00;;;;;;5043820;28;20025;-65
2023/05/24 07:24:39;;;;;;;19.70;8.48;;;15.80;1.00;;;;;;5029136;28;20114;-65
2023/05/24 07:27:05;;;;;;;18.10;8.95;;;15.90;1.00;;;;;;5024794;28;20053;-65
2023/05/24 07:29:31;;;;;;;19.30;8.60;;;15.20;1.00;;;;;;5028263;28;20064;-65
2023/05/24 07:31:57;;;;;;;21.23;8.23;;;15.20;99.90;;;;;;5027111;28;20052;-65
2023/05/24 07:34:26;;;;;;;19.77;6.70;;;15.20;99.90;;;;;;5025553;28;20400;-65
2023/05/24 07:36:52;;;;;;;15.15;6.68;;;15.30;99.90;;;;;;5024510;28;20056;-65
2023/05/24 07:39:17;;;;;;;22.80;6.65;;;15.40;99.90;;;;;;5028989;28;20396;-65
2023/05/24 07:41:43;;;;;;;24.02;6.25;;;15.60;99.90;;;;;;5027293;28;20041;-68
2023/05/24 07:44:10;;;;;;;20.17;6.40;;;15.80;99.90;;;;;;5029008;28;20037;-65
2023/05/24 07:46:36;;;;;;;15.85;5.68;;;15.70;99.90;;;;;;5028438;28;20041;-65
2023/05/24 07:49:02;;;;;;;17.92;6.32;;;15.70;99.90;;;;;;5028808;28;20099;-65
2023/05/24 07:51:28;;;;;;;20.77;5.65;;;15.70;99.90;;;;;;5029214;28;20042;-65
2023/05/24 07:53:53;;;;;;;14.93;5.20;;;15.70;99.90;;;;;;5029262;28;20037;-65
2023/05/24 07:56:20;;;;;;;17.30;5.63;;;15.90;99.90;;;;;;5028694;28;20095;-65
2023/05/24 07:58:45;;;;;;;24.10;6.13;;;15.90;99.90;;;;;;5028769;28;20450;-65
2023/05/24 08:01:12;;;;;;;19.92;5.80;;;16.00;99.90;;;;;;5032843;28;20041;-65
2023/05/24 08:03:38;;;;;;;18.17;5.03;;;16.10;99.90;;;;;;5033128;28;20038;-65
2023/05/24 08:06:04;;;;;;;19.83;5.88;;;16.10;99.90;;;;;;5032766;28;20037;-65
2023/05/24 08:08:29;;;;;;;21.73;5.47;;;16.20;99.90;;;;;;5031926;28;20147;-65
2023/05/24 08:10:55;;;;;;;19.08;6.82;;;16.40;99.90;;;;;;5032757;28;20080;-65
2023/05/24 08:13:21;;;;;;;20.08;6.90;;;16.40;99.90;;;;;;5012983;28;20659;-65
2023/05/24 08:15:46;;;;;;;19.48;6.25;;;16.40;99.90;;;;;;5031282;28;20406;-65
2023/05/24 08:18:12;;;;;;;22.50;6.82;;;16.40;99.90;;;;;;5032021;28;20614;-65
2023/05/24 08:20:38;;;;;;;23.80;6.80;;;16.60;99.90;;;;;;5032918;28;20409;-65
2023/05/24 08:23:03;;;;;;;14.30;5.30;;;16.50;99.90;;;;;;5032132;28;20037;-65
2023/05/24 08:25:29;;;;;;;20.17;6.13;;;16.40;99.90;;;;;;5032587;28;20557;-65
2023/05/24 08:27:56;;;;;;;21.90;5.53;;;16.10;99.90;;;;;;5029211;28;20042;-66
2023/05/24 08:30:22;;;;;;;18.50;6.32;;;16.10;99.90;;;;;;5030538;28;20517;-66
2023/05/24 08:32:47;;;;;;;19.90;5.70;;;16.10;99.90;;;;;;5027919;28;20025;-66
2023/05/24 08:35:13;;;;;;;18.63;6.50;;;16.10;99.90;;;;;;5031794;28;20063;-67
2023/05/24 08:37:39;;;;;;;15.10;6.07;;;16.10;99.90;;;;;;5027999;28;20052;-66
2023/05/24 08:40:08;;;;;;;18.00;5.35;;;16.20;99.90;;;;;;5031715;28;20053;-67
2023/05/24 08:42:37;;;;;;;14.05;5.00;;;16.30;99.90;;;;;;5028650;28;20037;-65
2023/05/24 08:45:08;;;;;;;14.15;4.80;;;16.30;99.90;;;;;;5028552;28;20056;-65
2023/05/24 08:47:35;;;;;;;20.95;6.18;;;16.20;99.90;;;;;;5019685;28;20145;-65
2023/05/24 08:50:02;;;;;;;14.68;4.95;;;16.40;99.90;;;;;;5025871;28;20038;-65
2023/05/24 08:52:30;;;;;;;13.13;4.65;;;16.70;99.90;;;;;;5030151;28;20517;-65
2023/05/24 08:54:57;;;;;;;16.98;4.80;;;16.40;99.90;;;;;;5031158;28;20049;-65
2023/05/24 08:57:25;;;;;;;15.05;4.85;;;16.50;99.90;;;;;;5030503;28;20128;-65
2023/05/24 08:59:54;;;;;;;14.48;4.40;;;16.60;99.90;;;;;;5028475;28;20029;-65
2023/05/24 09:02:20;;;;;;;13.45;4.53;;;16.70;99.90;;;;;;5031252;28;21165;-65
2023/05/24 09:04:48;;;;;;;15.00;5.00;;;16.80;99.90;;;;;;5031509;28;20525;-65
2023/05/24 09:07:16;;;;;;;14.35;4.70;;;16.60;99.90;;;;;;5025773;28;20033;-65
2023/05/24 09:09:44;;;;;;;17.77;4.88;;;16.50;99.90;;;;;;5028802;28;20050;-65
2023/05/24 09:12:12;;;;;;;14.88;4.65;;;16.40;99.90;;;;;;5028604;28;20038;-65
2023/05/24 09:14:38;;;;;;;17.58;5.15;;;16.50;99.90;;;;;;5031567;28;20056;-65
2023/05/24 09:17:04;;;;;;;16.67;4.47;;;16.60;99.90;;;;;;5029264;28;20041;-65
2023/05/24 09:19:30;;;;;;;17.13;4.85;;;16.60;99.90;;;;;;5029727;28;20038;-65
2023/05/24 09:21:57;;;;;;;16.35;4.82;;;16.50;99.90;;;;;;5025968;28;20034;-65
2023/05/24 09:24:23;;;;;;;17.45;4.72;;;16.60;99.90;;;;;;5028599;28;20502;-65
2023/05/24 09:26:49;;;;;;;14.35;4.70;;;16.40;99.90;;;;;;5029949;28;20068;-65
2023/05/24 09:29:15;;;;;;;18.05;5.70;;;16.30;99.90;;;;;;5027251;28;20122;-65
2023/05/24 09:31:41;;;;;;;19.95;4.65;;;16.60;99.90;;;;;;5028232;28;20073;-65
2023/05/24 09:34:14;;;;;;;18.30;4.88;;;16.70;99.90;;;;;;5028447;28;20068;-65
2023/05/24 09:36:41;;;;;;;19.42;4.22;;;16.80;99.90;;;;;;5030765;28;20550;-65
2023/05/24 09:39:09;;;;;;;17.30;4.97;;;16.90;99.90;;;;;;5031187;28;20108;-65
2023/05/24 09:41:36;;;;;;;15.57;5.15;;;17.00;99.90;;;;;;5029314;28;20407;-65
2023/05/24 09:44:05;;;;;;;14.40;4.18;;;16.80;99.90;;;;;;5028704;28;20038;-65
2023/05/24 09:46:39;;;;;;;14.60;4.65;;;16.70;99.90;;;;;;5029293;28;20439;-65
2023/05/24 09:49:08;;;;;;;12.10;4.38;;;17.20;99.90;;;;;;5026446;28;20053;-65
2023/05/24 09:51:37;;;;;;;15.05;4.43;;;17.10;99.90;;;;;;5027471;28;20095;-65
2023/05/24 09:54:04;;;;;;;15.52;4.25;;;17.00;99.90;;;;;;5027091;28;20495;-66
2023/05/24 09:56:32;;;;;;;16.55;4.90;;;16.60;99.90;;;;;;5028738;28;20065;-65
2023/05/24 09:59:04;;;;;;;18.75;5.13;;;16.70;99.90;;;;;;5031241;28;20045;-65
2023/05/24 10:01:32;;;;;;;13.95;4.43;;;16.30;99.90;;;;;;5029036;28;20403;-65
2023/05/24 10:03:59;;;;;;;14.93;4.50;;;16.20;99.90;;;;;;5027869;28;20434;-65
2023/05/24 10:06:24;;;;;;;10.77;3.97;;;16.20;99.90;;;;;;5025814;28;20033;-65
2023/05/24 10:08:53;;;;;;;10.98;3.78;;;16.40;99.90;;;;;;5028234;28;20053;-65
2023/05/24 10:11:19;;;;;;;14.07;4.45;;;16.40;99.90;;;;;;5027457;28;20038;-66
2023/05/24 10:13:47;;;;;;;13.43;3.78;;;16.30;99.90;;;;;;5029298;28;20065;-65
2023/05/24 10:16:13;;;;;;;14.77;4.70;;;16.40;99.90;;;;;;5030035;28;20065;-66
2023/05/24 10:18:40;;;;;;;14.40;4.38;;;16.20;99.90;;;;;;5027515;28;20468;-65
2023/05/24 10:21:09;;;;;;;10.57;3.83;;;16.00;99.90;;;;;;5027918;28;20050;-65
2023/05/24 10:23:41;;;;;;;12.38;4.18;;;16.00;99.90;;;;;;5029205;28;20052;-65
2023/05/24 10:26:08;;;;;;;15.85;4.05;;;16.10;99.90;;;;;;5029905;28;20490;-65
2023/05/24 10:28:52;;;;;;;17.50;4.30;;;16.20;99.90;;;;;;5026056;28;20073;-65
2023/05/24 10:31:26;;;;;;;13.75;4.35;;;16.30;99.90;;;;;;5027448;28;20037;-64
2023/05/24 10:33:57;;;;;;;12.07;4.80;;;16.20;99.90;;;;;;5023124;28;20136;-66
2023/05/24 10:36:24;;;;;;;14.20;4.90;;;16.00;99.90;;;;;;5025816;28;20087;-65
2023/05/24 10:38:51;;;;;;;16.63;4.70;;;16.20;99.90;;;;;;5025978;28;20045;-65
2023/05/24 10:41:17;;;;;;;12.45;4.63;;;16.10;99.90;;;;;;5026656;28;20037;-65
2023/05/24 10:43:46;;;;;;;17.00;4.50;;;16.00;99.90;;;;;;5029874;28;20040;-65
2023/05/24 10:46:18;;;;;;;16.23;4.47;;;15.80;99.90;;;;;;5026878;28;20473;-64
2023/05/24 10:48:57;;;;;;;13.10;4.53;;;15.80;99.90;;;;;;5023926;28;20159;-65
2023/05/24 10:51:32;;;;;;;15.07;4.45;;;15.90;99.90;;;;;;5026458;28;20076;-65
2023/05/24 10:54:10;;;;;;;13.45;4.70;;;16.00;99.90;;;;;;5029593;28;20084;-65
2023/05/24 10:56:41;;;;;;;11.10;4.13;;;16.10;99.90;;;;;;5030314;28;20099;-65
2023/05/24 10:59:07;;;;;;;15.30;4.32;;;16.00;99.90;;;;;;5027520;28;20049;-65
2023/05/24 11:01:33;;;;;;;12.43;4.22;;;16.00;99.90;;;;;;5029670;28;20068;-65
2023/05/24 11:04:27;;;;;;;15.77;4.72;;;16.00;99.90;;;;;;5021987;28;20037;-65
2023/05/24 11:07:08;;;;;;;11.20;3.60;;;16.10;99.90;;;;;;5021173;28;20241;-65
2023/05/24 11:09:56;;;;;;;11.75;4.13;;;16.20;99.90;;;;;;5027088;28;20044;-65
2023/05/24 11:12:29;;;;;;;14.60;4.35;;;16.20;99.90;;;;;;5029256;28;20075;-65
2023/05/24 11:14:55;;;;;;;9.98;3.83;;;16.20;99.90;;;;;;5026828;28;20120;-66
2023/05/24 11:17:22;;;;;;;12.93;3.97;;;16.10;99.90;;;;;;5025330;28;20136;-65
2023/05/24 11:19:52;;;;;;;14.07;4.40;;;16.10;99.90;;;;;;5021509;28;20033;-65
2023/05/24 11:22:23;;;;;;;13.10;3.90;;;16.20;99.90;;;;;;5023663;28;20040;-65
2023/05/24 11:24:51;;;;;;;10.48;3.75;;;16.10;99.90;;;;;;5019544;28;20034;-65
2023/05/24 11:27:16;;;;;;;14.18;4.40;;;16.10;99.90;;;;;;5024879;28;20076;-65
2023/05/24 11:29:43;;;;;;;16.00;4.28;;;16.20;99.90;;;;;;5025133;28;20139;-65
2023/05/24 11:32:14;;;;;;;15.43;4.22;;;16.10;99.90;;;;;;5021648;28;20562;-65
2023/05/24 11:34:40;;;;;;;11.27;4.40;;;16.00;99.90;;;;;;5007213;28;20126;-65
2023/05/24 11:37:06;;;;;;;15.23;4.22;;;16.20;99.90;;;;;;5023630;28;20628;-65
2023/05/24 11:39:36;;;;;;;11.55;3.95;;;16.40;99.90;;;;;;5016105;28;20068;-65
2023/05/24 11:42:06;;;;;;;11.90;3.65;;;16.50;99.90;;;;;;5026515;28;20179;-65
2023/05/24 11:44:33;;;;;;;16.85;4.03;;;16.40;99.90;;;;;;5025231;28;20112;-65
2023/05/24 11:47:04;;;;;;;14.27;4.32;;;16.20;99.90;;;;;;5026078;28;20537;-65
2023/05/24 11:49:29;;;;;;;13.05;4.18;;;16.30;99.90;;;;;;5028340;28;20049;-65
2023/05/24 11:51:56;;;;;;;9.82;3.67;;;16.20;99.90;;;;;;5026235;28;20043;-65
2023/05/24 11:54:23;;;;;;;12.38;3.97;;;16.30;99.90;;;;;;5023139;28;20060;-65
2023/05/24 11:56:48;;;;;;;14.70;4.20;;;16.30;99.90;;;;;;5027352;28;20075;-65
2023/05/24 11:59:16;;;;;;;14.05;4.30;;;16.40;99.90;;;;;;5024619;28;20049;-65
2023/05/24 12:01:42;;;;;;;10.02;4.07;;;16.50;99.90;;;;;;5025091;28;20056;-65
2023/05/24 12:04:09;;;;;;;10.25;3.25;;;16.50;99.70;;;;;;5027454;28;20108;-65
2023/05/24 12:06:36;;;;;;;8.77;3.70;;;16.50;97.10;;;;;;5027856;28;20709;-65
2023/05/24 12:09:04;;;;;;;12.60;4.43;;;16.50;88.80;;;;;;5026002;28;20396;-65
2023/05/24 12:11:31;;;;;;;10.00;3.90;;;16.50;90.90;;;;;;5027538;28;20499;-65
2023/05/24 12:13:58;;;;;;;11.85;4.25;;;16.60;96.00;;;;;;5027039;28;20053;-65
2023/05/24 12:16:25;;;;;;;11.15;3.95;;;16.70;99.90;;;;;;5028304;28;20376;-65
2023/05/24 12:18:51;;;;;;;13.38;4.07;;;16.70;99.90;;;;;;5028752;28;20048;-65
2023/05/24 12:21:18;;;;;;;10.55;3.63;;;16.70;99.90;;;;;;5021951;28;20073;-65
2023/05/24 12:23:46;;;;;;;14.38;4.07;;;16.90;89.30;;;;;;5027597;28;20048;-65
2023/05/24 12:26:13;;;;;;;12.57;4.20;;;16.60;85.10;;;;;;5025937;28;20037;-65
2023/05/24 12:28:39;;;;;;;11.05;4.13;;;16.60;91.00;;;;;;5027655;28;20033;-65
2023/05/24 12:31:05;;;;;;;10.82;3.55;;;16.70;99.90;;;;;;5024264;28;20068;-65
2023/05/24 12:33:31;;;;;;;12.68;3.75;;;16.70;99.90;;;;;;5022391;28;20033;-65